createdAt,value
2023-04-18T00:02:17.718Z,12.86
2023-04-18T00:04:51.010Z,12.77
2023-04-18T00:07:22.108Z,12.92
2023-04-18T00:09:51.687Z,12.86
2023-04-18T00:12:26.524Z,12.71
2023-04-18T00:14:58.629Z,12.80
2023-04-18T00:17:35.236Z,12.67
2023-04-18T00:20:08.059Z,12.78
2023-04-18T00:22:42.851Z,12.85
2023-04-18T00:25:15.822Z,12.76
2023-04-18T00:27:46.039Z,12.83
2023-04-18T00:30:25.219Z,12.83
2023-04-18T00:32:53.905Z,12.70
2023-04-18T00:35:25.609Z,12.65
2023-04-18T00:37:55.931Z,12.68
2023-04-18T00:40:27.801Z,12.60
2023-04-18T00:43:06.420Z,12.56
2023-04-18T00:45:41.911Z,12.74
2023-04-18T00:48:13.969Z,12.68
2023-04-18T00:50:45.228Z,12.84
2023-04-18T00:53:19.134Z,12.66
2023-04-18T00:55:51.324Z,12.75
2023-04-18T00:58:23.898Z,12.61
2023-04-18T01:00:55.108Z,12.62
2023-04-18T01:03:24.284Z,12.53
2023-04-18T01:05:52.798Z,12.47
2023-04-18T01:08:29.944Z,12.46
2023-04-18T01:11:04.651Z,12.51
2023-04-18T01:13:46.479Z,12.47
2023-04-18T01:16:17.074Z,12.62
2023-04-18T01:18:49.130Z,12.55
2023-04-18T01:21:31.209Z,12.44
2023-04-18T01:24:15.528Z,12.61
2023-04-18T01:26:51.298Z,12.49
2023-04-18T01:29:22.315Z,12.44
2023-04-18T01:31:57.480Z,12.47
2023-04-18T01:34:27.539Z,12.43
2023-04-18T01:36:55.865Z,12.52
2023-04-18T01:39:33.357Z,12.40
2023-04-18T01:42:04.906Z,12.52
2023-04-18T01:44:39.182Z,12.65
2023-04-18T01:47:09.857Z,12.42
2023-04-18T01:49:42.985Z,12.56
2023-04-18T01:52:14.745Z,12.51
2023-04-18T01:54:51.911Z,12.51
2023-04-18T01:57:21.035Z,12.37
2023-04-18T01:59:54.313Z,12.55
2023-04-18T02:02:34.425Z,12.50
2023-04-18T02:05:06.178Z,12.50
2023-04-18T02:07:37.261Z,12.47
2023-04-18T02:10:21.227Z,12.55
2023-04-18T02:12:52.188Z,12.52
2023-04-18T02:15:24.587Z,12.43
2023-04-18T02:17:56.449Z,12.50
2023-04-18T02:20:31.572Z,12.45
2023-04-18T02:23:04.934Z,12.58
2023-04-18T02:25:41.368Z,12.37
2023-04-18T02:28:14.239Z,12.22
2023-04-18T02:30:47.921Z,12.35
2023-04-18T02:33:19.503Z,12.44
2023-04-18T02:35:56.556Z,12.51
2023-04-18T02:38:29.025Z,12.44
2023-04-18T02:41:17.481Z,12.33
2023-04-18T02:43:48.310Z,12.36
2023-04-18T02:46:22.174Z,12.19
2023-04-18T02:48:56.415Z,12.15
2023-04-18T02:51:30.857Z,12.28
2023-04-18T02:54:03.384Z,12.25
2023-04-18T02:57:02.441Z,12.28
2023-04-18T03:00:14.308Z,12.30
2023-04-18T03:03:06.435Z,12.25
2023-04-18T03:05:54.903Z,12.31
2023-04-18T03:08:24.539Z,12.33
2023-04-18T03:10:58.301Z,12.20
2023-04-18T03:13:34.302Z,12.30
2023-04-18T03:16:06.386Z,12.43
2023-04-18T03:18:41.239Z,12.20
2023-04-18T03:21:15.344Z,12.30
2023-04-18T03:23:53.156Z,12.40
2023-04-18T03:26:33.645Z,12.34
2023-04-18T03:29:06.361Z,12.40
2023-04-18T03:31:35.190Z,12.34
2023-04-18T03:34:03.955Z,12.30
2023-04-18T03:36:35.809Z,12.46
2023-04-18T03:39:10.969Z,12.29
2023-04-18T03:41:46.442Z,12.26
2023-04-18T03:44:20.359Z,12.31
2023-04-18T03:46:52.256Z,12.27
2023-04-18T03:49:22.191Z,12.33
2023-04-18T03:51:52.115Z,12.31
2023-04-18T03:54:23.528Z,12.18
2023-04-18T03:56:59.534Z,12.25
2023-04-18T03:59:36.069Z,12.11
2023-04-18T04:02:05.492Z,12.08
2023-04-18T04:04:33.794Z,12.11
2023-04-18T04:07:03.355Z,12.22
2023-04-18T04:09:43.091Z,12.10
2023-04-18T04:12:20.031Z,12.05
2023-04-18T04:14:52.972Z,12.25
2023-04-18T04:17:22.109Z,12.13
2023-04-18T04:19:53.793Z,12.15
2023-04-18T04:22:29.696Z,12.20
2023-04-18T04:25:01.408Z,12.14
2023-04-18T04:27:45.498Z,12.25
2023-04-18T04:30:37.202Z,12.24
2023-04-18T04:33:09.692Z,12.21
2023-04-18T04:35:43.313Z,12.20
2023-04-18T04:38:19.934Z,12.25
2023-04-18T04:40:50.946Z,12.28
2023-04-18T04:43:22.272Z,12.24
2023-04-18T04:45:57.805Z,12.10
2023-04-18T04:48:32.149Z,11.99
2023-04-18T04:51:04.151Z,12.17
2023-04-18T04:53:33.284Z,12.14
2023-04-18T04:56:06.259Z,12.12
2023-04-18T04:58:35.509Z,12.05
2023-04-18T05:02:05.544Z,11.97
2023-04-18T05:04:36.738Z,12.06
2023-04-18T05:07:09.908Z,12.02
2023-04-18T05:09:44.134Z,12.09
2023-04-18T05:12:13.337Z,12.05
2023-04-18T05:14:42.649Z,12.00
2023-04-18T05:17:13.527Z,12.10
2023-04-18T05:19:56.760Z,12.08
2023-04-18T05:22:26.639Z,12.08
2023-04-18T05:24:58.043Z,12.08
2023-04-18T05:27:30.142Z,12.02
2023-04-18T05:30:04.542Z,12.08
2023-04-18T05:32:48.574Z,11.94
2023-04-18T05:35:19.860Z,11.99
2023-04-18T05:37:54.134Z,12.03
2023-04-18T05:40:27.352Z,12.02
2023-04-18T05:43:04.252Z,11.94
2023-04-18T05:45:35.130Z,12.05
2023-04-18T05:48:08.997Z,12.13
2023-04-18T05:50:37.400Z,12.15
2023-04-18T05:53:14.658Z,12.01
2023-04-18T05:55:45.010Z,12.15
2023-04-18T05:58:15.521Z,12.20
2023-04-18T06:00:50.512Z,12.26
2023-04-18T06:03:22.532Z,12.26
2023-04-18T06:05:54.820Z,12.27
2023-04-18T06:08:30.899Z,12.28
2023-04-18T06:11:00.230Z,12.39
2023-04-18T06:13:34.778Z,12.29
2023-04-18T06:16:04.752Z,12.23
2023-04-18T06:18:36.983Z,12.21
2023-04-18T06:21:11.174Z,12.34
2023-04-18T06:23:47.563Z,12.23
2023-04-18T06:26:26.202Z,12.32
2023-04-18T06:28:57.010Z,12.29
2023-04-18T06:31:25.222Z,12.23
2023-04-18T06:33:57.013Z,12.16
2023-04-18T06:36:26.937Z,12.27
2023-04-18T06:38:59.700Z,12.25
2023-04-18T06:41:29.010Z,12.13
2023-04-18T06:46:59.410Z,12.14
2023-04-18T06:49:34.534Z,12.28
2023-04-18T06:52:03.880Z,12.22
2023-04-18T06:54:34.475Z,12.45
2023-04-18T06:57:06.152Z,12.29
2023-04-18T06:59:38.199Z,12.38
2023-04-18T07:02:10.889Z,12.32
2023-04-18T07:04:45.277Z,12.39
2023-04-18T07:07:18.196Z,12.60
2023-04-18T07:09:49.870Z,12.47
2023-04-18T07:12:19.387Z,12.52
2023-04-18T07:14:50.341Z,12.39
2023-04-18T07:17:20.848Z,12.49
2023-04-18T07:19:58.186Z,12.40
2023-04-18T07:22:27.560Z,12.53
2023-04-18T07:25:03.876Z,12.56
2023-04-18T07:27:36.795Z,12.55
2023-04-18T07:30:05.956Z,12.53
2023-04-18T07:32:43.734Z,12.72
2023-04-18T07:35:24.472Z,12.39
2023-04-18T07:38:01.532Z,12.57
2023-04-18T07:40:33.559Z,12.47
2023-04-18T07:43:04.107Z,12.47
2023-04-18T07:45:38.832Z,12.44
2023-04-18T07:48:16.235Z,12.50
2023-04-18T07:50:53.460Z,12.53
2023-04-18T07:53:22.607Z,12.70
2023-04-18T07:55:51.797Z,12.78
2023-04-18T07:58:23.419Z,12.62
2023-04-18T08:00:52.308Z,12.69
2023-04-18T08:03:22.537Z,12.59
2023-04-18T08:05:57.594Z,12.48
2023-04-18T08:08:34.044Z,12.65
2023-04-18T08:11:05.500Z,12.67
2023-04-18T08:13:35.131Z,12.69
2023-04-18T08:16:06.069Z,12.93
2023-04-18T08:18:37.112Z,12.93
2023-04-18T08:21:09.060Z,12.87
2023-04-18T08:23:38.716Z,12.98
2023-04-18T08:26:09.649Z,13.00
2023-04-18T08:28:39.095Z,12.97
2023-04-18T08:31:15.186Z,13.03
2023-04-18T08:33:53.875Z,12.81
2023-04-18T08:36:28.370Z,12.88
2023-04-18T08:39:04.318Z,13.03
2023-04-18T08:41:37.287Z,13.05
2023-04-18T08:44:07.919Z,13.18
2023-04-18T08:46:37.869Z,13.25
2023-04-18T08:49:12.220Z,13.38
2023-04-18T08:51:46.384Z,13.29
2023-04-18T08:54:24.593Z,13.35
2023-04-18T08:57:08.905Z,13.46
2023-04-18T08:59:37.265Z,13.52
2023-04-18T09:02:09.014Z,13.64
2023-04-18T09:04:52.736Z,13.57
2023-04-18T09:07:31.835Z,13.49
2023-04-18T09:10:05.924Z,13.66
2023-04-18T09:12:45.388Z,13.78
2023-04-18T09:15:23.794Z,13.90
2023-04-18T09:18:04.961Z,13.96
2023-04-18T09:20:37.708Z,13.91
2023-04-18T09:23:22.417Z,13.83
2023-04-18T09:26:00.241Z,13.94
2023-04-18T09:28:33.240Z,14.18
2023-04-18T09:31:09.635Z,14.08
2023-04-18T09:33:40.050Z,14.07
2023-04-18T09:36:25.200Z,13.94
2023-04-18T09:39:01.021Z,14.06
2023-04-18T09:41:32.728Z,13.97
2023-04-18T09:44:14.952Z,13.92
2023-04-18T09:46:49.617Z,13.93
2023-04-18T09:49:20.049Z,13.94
2023-04-18T09:51:53.988Z,13.85
2023-04-18T09:54:32.209Z,13.81
2023-04-18T09:57:03.553Z,13.73
2023-04-18T09:59:43.810Z,13.94
2023-04-18T10:02:18.866Z,14.16
2023-04-18T10:04:56.589Z,14.08
2023-04-18T10:07:35.167Z,14.06
2023-04-18T10:10:11.093Z,14.28
2023-04-18T10:12:40.185Z,14.35
2023-04-18T10:15:11.909Z,14.56
2023-04-18T10:18:02.861Z,14.51
2023-04-18T10:20:35.775Z,14.62
2023-04-18T10:23:42.218Z,14.76
2023-04-18T10:26:13.122Z,14.71
2023-04-18T10:28:55.255Z,14.64
2023-04-18T10:31:25.178Z,14.14
2023-04-18T10:34:06.685Z,14.27
2023-04-18T10:36:52.465Z,14.22
2023-04-18T10:39:32.513Z,14.45
2023-04-18T10:42:12.513Z,14.62
2023-04-18T10:44:40.644Z,14.76
2023-04-18T10:47:28.444Z,14.50
2023-04-18T10:50:08.725Z,14.65
2023-04-18T10:52:38.703Z,14.64
2023-04-18T10:55:28.139Z,14.45
2023-04-18T10:57:58.026Z,14.58
2023-04-18T11:00:26.911Z,14.56
2023-04-18T11:03:00.741Z,14.44
2023-04-18T11:05:34.165Z,14.30
2023-04-18T11:08:06.365Z,14.22
2023-04-18T11:10:35.626Z,14.26
2023-04-18T11:13:16.926Z,14.00
2023-04-18T11:15:50.925Z,14.11
2023-04-18T11:18:23.939Z,14.20
2023-04-18T11:20:55.267Z,14.37
2023-04-18T11:23:25.151Z,14.50
2023-04-18T11:25:57.594Z,14.46
2023-04-18T11:28:33.634Z,14.40
2023-04-18T11:31:07.609Z,14.52
2023-04-18T11:33:39.121Z,14.20
2023-04-18T11:36:11.186Z,14.43
2023-04-18T11:38:41.769Z,14.30
2023-04-18T11:41:18.116Z,14.20
2023-04-18T11:43:55.512Z,14.08
2023-04-18T11:46:25.577Z,14.20
2023-04-18T11:49:02.330Z,14.40
2023-04-18T11:51:41.889Z,14.36
2023-04-18T11:54:43.729Z,14.52
2023-04-18T11:57:24.725Z,14.69
2023-04-18T12:00:01.322Z,14.76
2023-04-18T12:02:46.098Z,14.81
2023-04-18T12:05:27.676Z,14.65
2023-04-18T12:07:59.519Z,14.56
2023-04-18T12:10:31.927Z,14.50
2023-04-18T12:13:03.416Z,14.80
2023-04-18T12:15:41.193Z,14.68
2023-04-18T12:18:13.144Z,14.73
2023-04-18T12:20:47.276Z,14.66
2023-04-18T12:23:30.868Z,14.57
2023-04-18T12:26:00.976Z,14.52
2023-04-18T12:28:33.744Z,14.67
2023-04-18T12:31:09.076Z,14.59
2023-04-18T12:33:46.170Z,14.69
2023-04-18T12:36:16.920Z,14.21
2023-04-18T12:38:52.531Z,14.40
2023-04-18T12:41:21.893Z,14.55
2023-04-18T12:44:00.590Z,14.38
2023-04-18T12:46:34.162Z,14.45
2023-04-18T12:49:05.042Z,14.32
2023-04-18T12:51:36.293Z,14.27
2023-04-18T12:54:05.157Z,14.33
2023-04-18T12:56:44.850Z,14.28
2023-04-18T12:59:15.334Z,14.17
2023-04-18T13:01:58.064Z,14.11
2023-04-18T13:04:35.894Z,14.02
2023-04-18T13:07:10.760Z,14.16
2023-04-18T13:09:41.058Z,13.90
2023-04-18T13:12:13.303Z,13.98
2023-04-18T13:14:44.583Z,13.90
2023-04-18T13:17:26.318Z,13.93
2023-04-18T13:20:02.263Z,14.03
2023-04-18T13:22:32.095Z,13.86
2023-04-18T13:25:04.791Z,14.03
2023-04-18T13:27:34.346Z,14.42
2023-04-18T13:30:06.400Z,14.07
2023-04-18T13:32:41.279Z,14.13
2023-04-18T13:35:14.557Z,14.17
2023-04-18T13:37:47.665Z,14.28
2023-04-18T13:40:21.531Z,14.24
2023-04-18T13:42:55.425Z,14.15
2023-04-18T13:45:34.900Z,14.16
2023-04-18T13:48:20.628Z,14.04
2023-04-18T13:50:50.514Z,14.01
2023-04-18T13:53:21.475Z,14.10
2023-04-18T13:55:49.916Z,14.24
2023-04-18T13:58:18.428Z,13.92
2023-04-18T14:00:46.581Z,14.02
2023-04-18T14:03:30.978Z,14.04
2023-04-18T14:06:04.958Z,14.07
2023-04-18T14:08:34.324Z,13.98
2023-04-18T14:11:05.123Z,13.93
2023-04-18T14:13:34.679Z,14.14
2023-04-18T14:16:16.724Z,13.93
2023-04-18T14:18:49.076Z,14.01
2023-04-18T14:21:20.257Z,13.82
2023-04-18T14:23:49.528Z,13.78
2023-04-18T14:26:25.626Z,13.58
2023-04-18T14:29:02.137Z,13.92
2023-04-18T14:31:30.945Z,13.86
2023-04-18T14:34:12.107Z,13.84
2023-04-18T14:36:41.309Z,13.58
2023-04-18T14:39:24.724Z,13.53
2023-04-18T14:41:54.912Z,13.54
2023-04-18T14:44:26.232Z,13.48
2023-04-18T14:46:54.828Z,13.66
2023-04-18T14:49:32.754Z,13.63
2023-04-18T14:52:03.924Z,13.64
2023-04-18T14:54:40.383Z,13.74
2023-04-18T14:57:18.152Z,13.91
2023-04-18T14:59:47.565Z,13.84
2023-04-18T15:02:21.531Z,13.96
2023-04-18T15:04:53.789Z,13.87
2023-04-18T15:07:24.935Z,13.93
2023-04-18T15:09:56.543Z,13.94
2023-04-18T15:12:27.313Z,13.90
2023-04-18T15:15:01.260Z,13.89
2023-04-18T15:17:30.430Z,13.74
2023-04-18T15:20:09.490Z,13.83
2023-04-18T15:22:45.933Z,13.63
2023-04-18T15:25:28.150Z,13.62
2023-04-18T15:27:58.377Z,13.45
2023-04-18T15:30:28.186Z,13.58
2023-04-18T15:32:59.572Z,13.59
2023-04-18T15:35:32.522Z,13.66
2023-04-18T15:38:03.296Z,13.48
2023-04-18T15:40:34.080Z,13.26
2023-04-18T15:43:13.622Z,13.33
2023-04-18T15:45:47.076Z,13.57
2023-04-18T15:48:19.154Z,13.41
2023-04-18T15:50:55.560Z,13.23
2023-04-18T15:53:26.508Z,13.38
2023-04-18T15:55:57.462Z,13.16
2023-04-18T15:58:30.064Z,13.57
2023-04-18T16:00:59.418Z,13.67
2023-04-18T16:03:30.581Z,13.50
2023-04-18T16:06:03.057Z,13.41
2023-04-18T16:08:33.383Z,13.31
2023-04-18T16:11:08.320Z,13.01
2023-04-18T16:13:38.672Z,13.07
2023-04-18T16:16:07.783Z,12.84
2023-04-18T16:18:41.936Z,12.93
2023-04-18T16:21:15.582Z,12.90
2023-04-18T16:23:50.294Z,12.92
2023-04-18T16:26:21.623Z,13.06
2023-04-18T16:28:53.909Z,12.80
2023-04-18T16:31:28.410Z,12.69
2023-04-18T16:34:06.059Z,12.77
2023-04-18T16:36:35.781Z,12.82
2023-04-18T16:39:06.126Z,12.79
2023-04-18T16:41:47.693Z,12.75
2023-04-18T16:44:19.064Z,12.78
2023-04-18T16:46:49.111Z,12.58
2023-04-18T16:49:26.912Z,12.58
2023-04-18T16:52:05.843Z,12.57
2023-04-18T16:54:43.413Z,12.75
2023-04-18T16:57:12.243Z,12.67
2023-04-18T16:59:44.444Z,12.66
2023-04-18T17:02:16.855Z,12.74
2023-04-18T17:04:53.378Z,12.81
2023-04-18T17:07:24.279Z,12.86
2023-04-18T17:09:56.707Z,12.71
2023-04-18T17:12:41.673Z,12.88
2023-04-18T17:15:21.239Z,12.73
2023-04-18T17:17:57.442Z,12.68
2023-04-18T17:20:32.049Z,12.53
2023-04-18T17:23:05.477Z,12.64
2023-04-18T17:25:38.350Z,12.69
2023-04-18T17:28:20.032Z,12.53
2023-04-18T17:30:51.541Z,12.52
2023-04-18T17:33:29.616Z,12.46
2023-04-18T17:36:12.092Z,12.64
2023-04-18T17:38:52.022Z,12.47
2023-04-18T17:41:27.004Z,12.75
2023-04-18T17:43:59.477Z,12.43
2023-04-18T17:46:40.841Z,12.59
2023-04-18T17:49:11.310Z,12.46
2023-04-18T17:51:49.649Z,12.45
2023-04-18T17:54:25.345Z,12.60
2023-04-18T17:56:55.791Z,12.62
2023-04-18T17:59:30.179Z,12.53
2023-04-18T18:02:09.080Z,12.57
2023-04-18T18:04:47.379Z,12.40
2023-04-18T18:07:31.713Z,12.55
2023-04-18T18:10:21.495Z,12.42
2023-04-18T18:13:04.230Z,12.37
2023-04-18T18:15:35.651Z,12.47
2023-04-18T18:18:14.274Z,12.63
2023-04-18T18:20:45.471Z,12.46
2023-04-18T18:23:25.198Z,12.59
2023-04-18T18:26:17.113Z,12.65
2023-04-18T18:28:51.802Z,12.58
2023-04-18T18:31:29.446Z,12.47
2023-04-18T18:34:08.944Z,12.45
2023-04-18T18:36:40.557Z,12.59
2023-04-18T18:39:19.469Z,12.42
2023-04-18T18:42:02.443Z,12.26
2023-04-18T18:44:40.413Z,12.41
2023-04-18T18:47:24.800Z,12.41
2023-04-18T18:50:02.948Z,12.60
2023-04-18T18:52:48.204Z,12.55
2023-04-18T18:55:41.550Z,12.46
2023-04-18T18:58:24.608Z,12.37
2023-04-18T19:01:03.814Z,12.53
2023-04-18T19:03:32.556Z,12.46
2023-04-18T19:06:07.419Z,12.47
2023-04-18T19:08:47.322Z,12.44
2023-04-18T19:11:20.952Z,12.52
2023-04-18T19:14:11.309Z,12.54
2023-04-18T19:16:56.626Z,12.65
2023-04-18T19:19:30.056Z,12.47
2023-04-18T19:22:02.513Z,12.61
2023-04-18T19:24:45.606Z,12.59
2023-04-18T19:27:26.095Z,12.59
2023-04-18T19:29:58.297Z,12.41
2023-04-18T19:32:35.935Z,12.63
2023-04-18T19:35:19.064Z,12.57
2023-04-18T19:37:50.860Z,12.55
2023-04-18T19:40:36.695Z,12.61
2023-04-18T19:43:18.814Z,12.53
2023-04-18T19:46:05.822Z,12.42
2023-04-18T19:48:47.474Z,12.48
2023-04-18T19:51:32.544Z,12.55
2023-04-18T19:54:05.648Z,12.60
2023-04-18T19:56:38.237Z,12.67
2023-04-18T19:59:19.365Z,12.63
2023-04-18T20:02:06.029Z,12.67
2023-04-18T20:04:38.192Z,12.71
2023-04-18T20:07:17.370Z,12.79
2023-04-18T20:09:48.530Z,12.70
2023-04-18T20:12:22.936Z,12.65
2023-04-18T20:15:01.638Z,12.71
2023-04-18T20:17:35.135Z,12.84
2023-04-18T20:20:19.200Z,12.55
2023-04-18T20:23:03.215Z,12.52
2023-04-18T20:25:36.055Z,12.59
2023-04-18T20:28:08.165Z,12.54
2023-04-18T20:30:51.893Z,12.51
2023-04-18T20:33:28.222Z,12.56
2023-04-18T20:36:05.604Z,12.56
2023-04-18T20:38:37.701Z,12.52
2023-04-18T20:41:12.026Z,12.55
2023-04-18T20:44:03.264Z,12.55
2023-04-18T20:46:41.559Z,12.64
2023-04-18T20:49:19.310Z,12.61
2023-04-18T20:51:51.186Z,12.50
2023-04-18T20:54:35.664Z,12.64
2023-04-18T20:57:04.796Z,12.56
2023-04-18T20:59:39.469Z,12.43
2023-04-18T21:02:20.823Z,12.48
2023-04-18T21:04:53.352Z,12.47
2023-04-18T21:07:27.989Z,12.52
2023-04-18T21:09:57.557Z,12.45
2023-04-18T21:12:30.529Z,12.29
2023-04-18T21:15:06.500Z,12.45
2023-04-18T21:17:38.754Z,12.48
2023-04-18T21:20:10.698Z,12.45
2023-04-18T21:22:38.722Z,12.40
2023-04-18T21:25:07.903Z,12.42
2023-04-18T21:27:36.033Z,12.42
2023-04-18T21:30:05.230Z,12.51
2023-04-18T21:32:44.727Z,12.62
2023-04-18T21:35:22.620Z,12.52
2023-04-18T21:37:54.480Z,12.62
2023-04-18T21:40:26.768Z,12.61
2023-04-18T21:42:56.348Z,12.49
2023-04-18T21:45:36.539Z,12.44
2023-04-18T21:48:14.562Z,12.43
2023-04-18T21:50:48.829Z,12.54
2023-04-18T21:53:20.599Z,12.49
2023-04-18T21:55:49.368Z,12.29
2023-04-18T21:58:26.510Z,12.56
2023-04-18T22:00:55.593Z,12.61
2023-04-18T22:03:25.905Z,12.74
2023-04-18T22:06:00.264Z,12.63
2023-04-18T22:08:31.153Z,12.61
2023-04-18T22:11:00.607Z,12.51
2023-04-18T22:13:35.120Z,12.66
2023-04-18T22:16:17.604Z,12.71
2023-04-18T22:18:49.807Z,12.49
2023-04-18T22:21:19.969Z,12.49
2023-04-18T22:23:49.309Z,12.45
2023-04-18T22:26:31.250Z,12.65
2023-04-18T22:29:01.367Z,12.63
2023-04-18T22:31:32.761Z,12.51
2023-04-18T22:34:02.005Z,12.63
2023-04-18T22:36:40.467Z,12.63
2023-04-18T22:39:12.246Z,12.50
2023-04-18T22:41:46.301Z,12.53
2023-04-18T22:46:57.753Z,12.53
2023-04-18T22:49:29.832Z,12.45
2023-04-18T22:52:01.563Z,12.40
2023-04-18T22:54:31.077Z,12.23
2023-04-18T22:56:59.475Z,12.37
2023-04-18T22:59:30.175Z,12.46
2023-04-18T23:02:01.250Z,12.42
2023-04-18T23:04:40.850Z,12.33
2023-04-18T23:07:13.765Z,12.38
2023-04-18T23:09:47.830Z,12.38
2023-04-18T23:12:16.666Z,12.45
2023-04-18T23:14:50.402Z,12.37
2023-04-18T23:17:22.104Z,12.32
2023-04-18T23:19:55.224Z,12.22
2023-04-18T23:22:33.074Z,12.40
2023-04-18T23:25:03.491Z,12.19
2023-04-18T23:27:35.646Z,12.20
2023-04-18T23:30:04.915Z,12.19
2023-04-18T23:32:34.319Z,12.27
2023-04-18T23:35:04.368Z,12.07
2023-04-18T23:37:35.094Z,12.27
2023-04-18T23:40:06.966Z,12.29
2023-04-18T23:42:37.376Z,12.19
2023-04-18T23:45:14.795Z,12.22
2023-04-18T23:47:46.397Z,11.91
2023-04-18T23:50:17.631Z,12.11
2023-04-18T23:52:47.726Z,12.09
2023-04-18T23:55:19.146Z,12.12
2023-04-18T23:57:48.383Z,12.09
